Time;durP1;ratioP1;P1;durP2;ratioP2;P2;SDS_P1;SDS_P2;PMS_P1;PMS_P2;Temp;Humidity;BMP_temperature;BMP_pressure;BME280_temperature;BME280_humidity;BME280_pressure;Samples;Min_cycle;Max_cycle;Signal;HPM_P1;HPM_P2
2023/12/01 00:00:31;;;;;;;8.73;2.72;;;1.30;99.90;;;;;;5094899;28;20377;-78
2023/12/01 00:02:58;;;;;;;12.00;3.72;;;1.30;99.90;;;;;;5080171;28;20135;-79
2023/12/01 00:05:23;;;;;;;7.07;2.90;;;1.30;99.90;;;;;;5092471;28;20039;-78
2023/12/01 00:07:49;;;;;;;9.43;4.60;;;1.30;99.90;;;;;;5097197;28;20396;-78
2023/12/01 00:10:15;;;;;;;9.27;3.45;;;1.30;99.90;;;;;;5095829;28;20101;-78
2023/12/01 00:12:41;;;;;;;13.57;5.25;;;1.30;99.90;;;;;;5098871;28;20035;-78
2023/12/01 00:15:08;;;;;;;5.80;3.40;;;1.30;99.90;;;;;;5084317;28;20066;-78
2023/12/01 00:17:33;;;;;;;12.32;4.75;;;1.30;99.90;;;;;;5073216;28;20473;-78
2023/12/01 00:19:59;;;;;;;8.15;3.35;;;1.40;99.90;;;;;;5086956;28;20046;-78
2023/12/01 00:22:25;;;;;;;12.77;3.95;;;1.30;99.90;;;;;;5091798;28;20036;-78
2023/12/01 00:24:50;;;;;;;6.57;2.03;;;1.40;99.90;;;;;;5097305;28;20118;-78
2023/12/01 00:27:16;;;;;;;9.05;4.28;;;1.40;99.90;;;;;;5094627;28;20050;-78
2023/12/01 00:29:43;;;;;;;6.13;3.42;;;1.40;99.90;;;;;;5095049;28;20078;-78
2023/12/01 00:32:09;;;;;;;8.68;3.50;;;1.30;99.90;;;;;;5089733;28;20040;-78
2023/12/01 00:34:35;;;;;;;8.32;3.17;;;1.30;99.90;;;;;;5070748;28;20047;-78
2023/12/01 00:37:01;;;;;;;17.33;2.80;;;1.20;99.90;;;;;;5098510;28;20028;-78
2023/12/01 00:39:27;;;;;;;7.35;3.08;;;1.30;99.90;;;;;;5097444;28;20035;-78
2023/12/01 00:41:53;;;;;;;8.65;2.25;;;1.20;99.90;;;;;;5087993;28;20085;-78
2023/12/01 00:44:18;;;;;;;9.10;3.08;;;1.20;99.90;;;;;;5077663;28;20032;-78
2023/12/01 00:46:44;;;;;;;8.75;3.70;;;1.20;99.90;;;;;;5083546;28;20444;-78
2023/12/01 00:49:11;;;;;;;5.93;3.22;;;1.10;99.90;;;;;;5097359;28;20497;-78
2023/12/01 00:51:41;;;;;;;6.07;3.08;;;1.10;99.90;;;;;;5095293;28;20047;-78
2023/12/01 00:54:07;;;;;;;10.70;4.00;;;1.10;99.90;;;;;;5080046;28;20623;-78
2023/12/01 00:56:33;;;;;;;11.70;3.45;;;1.00;99.90;;;;;;5093834;28;20111;-78
2023/12/01 00:58:58;;;;;;;7.25;2.97;;;1.00;99.90;;;;;;5095370;28;20104;-78
2023/12/01 01:01:24;;;;;;;8.20;3.42;;;1.10;99.90;;;;;;5099365;28;20212;-78
2023/12/01 01:03:50;;;;;;;9.18;4.18;;;1.10;99.90;;;;;;5098269;28;20062;-78
2023/12/01 01:06:16;;;;;;;7.80;3.08;;;1.10;99.90;;;;;;5101853;28;20162;-78
2023/12/01 01:08:41;;;;;;;7.97;2.88;;;1.00;99.90;;;;;;5093465;28;20031;-78
2023/12/01 01:11:07;;;;;;;5.78;2.88;;;1.00;99.90;;;;;;5095724;28;20078;-78
2023/12/01 01:13:33;;;;;;;7.85;3.50;;;1.00;99.90;;;;;;5095926;28;20037;-78
2023/12/01 01:15:59;;;;;;;7.60;3.67;;;0.90;99.90;;;;;;5077122;28;20031;-78
2023/12/01 01:18:25;;;;;;;6.15;3.38;;;0.90;99.90;;;;;;5091581;28;20040;-79
2023/12/01 01:20:51;;;;;;;6.18;1.33;;;0.80;99.90;;;;;;5087396;28;20027;-79
2023/12/01 01:23:17;;;;;;;5.10;2.17;;;0.80;99.90;;;;;;5080309;28;20184;-79
2023/12/01 01:25:42;;;;;;;6.78;3.28;;;0.80;99.90;;;;;;5112205;27;20043;-78
2023/12/01 01:28:08;;;;;;;6.75;2.25;;;0.70;99.90;;;;;;5102726;28;20043;-79
2023/12/01 01:30:34;;;;;;;8.40;3.53;;;0.70;99.90;;;;;;5100384;28;20481;-79
2023/12/01 01:32:59;;;;;;;6.25;3.28;;;0.70;99.90;;;;;;5090740;28;20028;-79
2023/12/01 01:35:25;;;;;;;5.63;1.95;;;0.60;99.90;;;;;;5071795;28;20528;-79
2023/12/01 01:37:51;;;;;;;3.30;2.42;;;0.60;99.90;;;;;;5072994;28;20035;-79
2023/12/01 01:40:17;;;;;;;6.05;2.92;;;0.50;99.90;;;;;;5085215;28;20408;-79
2023/12/01 01:42:43;;;;;;;6.47;2.28;;;0.50;99.90;;;;;;5102157;28;20039;-79
2023/12/01 01:45:09;;;;;;;7.20;3.38;;;0.40;99.90;;;;;;5082600;28;20050;-79
2023/12/01 01:47:36;;;;;;;5.47;3.13;;;0.40;99.90;;;;;;5082029;28;20032;-79
2023/12/01 01:50:03;;;;;;;8.35;2.83;;;0.30;99.90;;;;;;5082636;28;20058;-79
2023/12/01 01:52:29;;;;;;;5.13;2.45;;;0.30;99.90;;;;;;5095258;28;20071;-79
2023/12/01 01:54:56;;;;;;;9.85;3.28;;;0.40;99.90;;;;;;5083755;28;20074;-79
2023/12/01 01:57:22;;;;;;;6.63;2.60;;;0.40;99.90;;;;;;5102610;27;20474;-79
2023/12/01 01:59:48;;;;;;;3.70;2.35;;;0.40;99.90;;;;;;5080900;28;20036;-79
2023/12/01 02:02:14;;;;;;;3.55;2.90;;;0.40;99.90;;;;;;5105113;27;20044;-79
2023/12/01 02:04:40;;;;;;;5.15;1.88;;;0.40;99.90;;;;;;5088006;28;20035;-79
2023/12/01 02:07:08;;;;;;;5.32;1.80;;;0.50;99.90;;;;;;5095841;28;20047;-79
2023/12/01 02:09:34;;;;;;;11.57;3.70;;;0.50;99.90;;;;;;5095022;28;20430;-79
2023/12/01 02:12:00;;;;;;;7.28;2.78;;;0.50;99.90;;;;;;5097451;28;20035;-79
2023/12/01 02:14:25;;;;;;;6.50;3.25;;;0.50;99.90;;;;;;5079292;28;20113;-79
2023/12/01 02:16:51;;;;;;;6.25;2.97;;;0.50;99.90;;;;;;5100152;28;20059;-79
2023/12/01 02:19:18;;;;;;;6.20;4.13;;;0.50;99.90;;;;;;5097181;28;20140;-79
2023/12/01 02:21:45;;;;;;;8.35;3.10;;;0.40;99.90;;;;;;5090473;28;20040;-79
2023/12/01 02:24:11;;;;;;;8.40;2.50;;;0.40;99.90;;;;;;5081619;28;20049;-79
2023/12/01 02:26:37;;;;;;;5.30;2.22;;;0.40;99.90;;;;;;5098211;28;20036;-79
2023/12/01 02:29:06;;;;;;;7.60;3.22;;;0.40;99.90;;;;;;5082523;28;20039;-79
2023/12/01 02:31:32;;;;;;;8.00;4.05;;;0.30;99.90;;;;;;5081617;28;20045;-79
2023/12/01 02:33:59;;;;;;;9.40;3.03;;;0.40;99.90;;;;;;5086195;28;20036;-79
2023/12/01 02:36:25;;;;;;;5.50;3.40;;;0.40;99.90;;;;;;5104820;27;20458;-79
2023/12/01 02:38:51;;;;;;;9.98;4.55;;;0.40;99.90;;;;;;5098070;28;20074;-79
2023/12/01 02:41:17;;;;;;;8.07;3.28;;;0.50;99.90;;;;;;5092131;28;20319;-79
2023/12/01 02:43:44;;;;;;;10.77;3.38;;;0.40;99.90;;;;;;5096180;28;20036;-79
2023/12/01 02:46:13;;;;;;;10.13;4.30;;;0.30;99.90;;;;;;5097374;28;20081;-79
2023/12/01 02:48:41;;;;;;;15.30;3.88;;;0.30;99.90;;;;;;5086627;28;20122;-79
2023/12/01 02:51:07;;;;;;;6.88;2.80;;;0.30;99.90;;;;;;5095152;28;20098;-79
2023/12/01 02:53:34;;;;;;;10.40;4.18;;;0.30;99.90;;;;;;5076168;28;20116;-79
2023/12/01 02:56:03;;;;;;;15.95;4.25;;;0.30;99.90;;;;;;5098928;28;20076;-79
2023/12/01 02:58:28;;;;;;;11.13;4.18;;;0.30;99.90;;;;;;5098825;28;20089;-79
2023/12/01 03:00:54;;;;;;;8.32;4.63;;;0.30;99.90;;;;;;5098664;28;20397;-79
2023/12/01 03:03:20;;;;;;;10.10;4.68;;;0.20;99.90;;;;;;5075354;28;20046;-79
2023/12/01 03:05:45;;;;;;;8.05;2.70;;;0.10;99.90;;;;;;5079049;28;20427;-79
2023/12/01 03:08:11;;;;;;;6.25;3.67;;;0.10;99.90;;;;;;5101071;27;20040;-79
2023/12/01 03:10:37;;;;;;;10.70;3.22;;;0.10;99.90;;;;;;5103782;27;20050;-79
2023/12/01 03:13:03;;;;;;;5.45;1.98;;;0.00;99.90;;;;;;5098731;28;20060;-79
2023/12/01 03:15:29;;;;;;;6.55;3.15;;;0.00;99.90;;;;;;5080863;28;20042;-79
2023/12/01 03:17:55;;;;;;;9.57;4.25;;;0.00;99.90;;;;;;5079560;28;20114;-79
2023/12/01 03:20:21;;;;;;;7.57;2.78;;;-0.10;99.90;;;;;;5091964;28;20032;-79
2023/12/01 03:22:50;;;;;;;9.02;3.97;;;0.00;99.90;;;;;;5093782;28;20035;-79
2023/12/01 03:25:16;;;;;;;9.05;4.00;;;0.00;99.90;;;;;;5075733;28;20035;-78
2023/12/01 03:27:44;;;;;;;11.15;3.25;;;0.00;99.90;;;;;;5077675;28;20153;-79
2023/12/01 03:30:20;;;;;;;9.20;5.18;;;0.00;99.90;;;;;;5087859;28;20044;-79
2023/12/01 03:32:51;;;;;;;15.98;4.50;;;0.00;99.90;;;;;;5096445;28;20031;-79
2023/12/01 03:35:24;;;;;;;4.05;2.50;;;-0.10;99.90;;;;;;5098165;28;20206;-79
2023/12/01 03:37:55;;;;;;;7.32;3.30;;;-0.10;99.90;;;;;;5077669;28;20032;-79
2023/12/01 03:40:21;;;;;;;8.23;4.60;;;-0.10;99.90;;;;;;5085802;28;20059;-79
2023/12/01 03:42:48;;;;;;;7.88;4.10;;;-0.20;99.90;;;;;;5083368;28;20504;-79
2023/12/01 03:45:14;;;;;;;7.03;3.95;;;-0.30;99.90;;;;;;5084369;28;20039;-79
2023/12/01 03:47:48;;;;;;;13.85;4.03;;;-0.30;99.90;;;;;;5084178;28;20064;-79
2023/12/01 03:50:14;;;;;;;5.80;2.38;;;-0.30;99.90;;;;;;5080835;28;20036;-79
2023/12/01 03:52:45;;;;;;;11.40;4.47;;;-0.20;99.90;;;;;;5090175;28;20072;-79
2023/12/01 03:55:11;;;;;;;15.85;4.55;;;-0.20;99.90;;;;;;5098879;28;20040;-79
2023/12/01 03:57:38;;;;;;;5.03;2.88;;;-0.20;99.90;;;;;;5096581;28;21737;-79
2023/12/01 04:00:13;;;;;;;6.32;3.03;;;-0.20;99.90;;;;;;5100556;28;20488;-79
2023/12/01 04:02:43;;;;;;;12.68;3.88;;;-0.20;99.90;;;;;;5062374;28;20043;-79
2023/12/01 04:05:17;;;;;;;9.32;3.45;;;-0.20;99.90;;;;;;5095506;28;20058;-79
2023/12/01 04:07:50;;;;;;;7.82;3.53;;;-0.20;99.90;;;;;;5082479;28;20040;-79
2023/12/01 04:10:16;;;;;;;11.90;3.22;;;-0.30;99.90;;;;;;5099301;28;20058;-79
2023/12/01 04:12:45;;;;;;;7.15;2.50;;;-0.40;99.90;;;;;;5082605;28;20548;-80
2023/12/01 04:15:15;;;;;;;5.60;2.30;;;-0.40;99.90;;;;;;5080493;28;20039;-79
2023/12/01 04:17:42;;;;;;;6.93;2.85;;;-0.50;99.90;;;;;;5081902;28;20032;-79
2023/12/01 04:20:22;;;;;;;6.43;2.03;;;-0.40;99.90;;;;;;5070209;28;20153;-79
2023/12/01 04:22:58;;;;;;;6.35;2.65;;;-0.50;99.90;;;;;;5089865;28;20307;-79
2023/12/01 04:25:25;;;;;;;10.00;3.38;;;-0.50;99.90;;;;;;5094862;28;20035;-79
2023/12/01 04:27:52;;;;;;;13.75;4.18;;;-0.50;99.90;;;;;;5077376;28;20071;-79
2023/12/01 04:30:18;;;;;;;10.82;4.45;;;-0.50;99.90;;;;;;5074598;28;20491;-79
2023/12/01 04:32:45;;;;;;;15.95;3.80;;;-0.50;99.90;;;;;;5080668;28;20068;-80
2023/12/01 04:35:14;;;;;;;10.85;4.97;;;-0.50;99.90;;;;;;5075441;28;20058;-80
2023/12/01 04:37:40;;;;;;;6.00;2.67;;;-0.50;99.90;;;;;;5081167;28;20032;-80
2023/12/01 04:40:16;;;;;;;5.18;3.65;;;-0.50;99.90;;;;;;5080117;28;20036;-80
2023/12/01 04:42:49;;;;;;;8.30;3.67;;;-0.50;99.90;;;;;;5078555;28;20036;-80
2023/12/01 04:45:20;;;;;;;9.40;3.95;;;-0.50;99.90;;;;;;5079111;28;20032;-80
2023/12/01 04:47:50;;;;;;;8.82;2.85;;;-0.40;99.90;;;;;;5092436;28;20039;-79
2023/12/01 04:50:18;;;;;;;10.35;4.88;;;-0.40;99.90;;;;;;5081152;28;20121;-79
2023/12/01 04:52:52;;;;;;;13.18;3.50;;;-0.40;99.90;;;;;;5088266;28;20042;-79
2023/12/01 04:55:19;;;;;;;5.68;3.00;;;-0.40;99.90;;;;;;5081249;28;20032;-80
2023/12/01 04:57:47;;;;;;;6.78;3.22;;;-0.30;99.90;;;;;;5087399;28;20370;-80
2023/12/01 05:00:21;;;;;;;4.38;1.67;;;-0.30;99.90;;;;;;5105165;27;20028;-80
2023/12/01 05:02:56;;;;;;;9.15;3.50;;;-0.40;99.90;;;;;;5079165;28;20043;-80
2023/12/01 05:05:26;;;;;;;6.75;2.53;;;-0.40;99.90;;;;;;5080039;28;20056;-80
2023/12/01 05:07:57;;;;;;;11.27;3.83;;;-0.40;99.90;;;;;;5080111;28;20036;-80
2023/12/01 05:10:24;;;;;;;13.70;5.32;;;-0.40;99.90;;;;;;5102227;27;20659;-80
2023/12/01 05:12:51;;;;;;;6.18;2.53;;;-0.40;99.90;;;;;;5104053;28;20063;-79
2023/12/01 05:15:24;;;;;;;6.30;3.33;;;-0.40;99.90;;;;;;5079249;28;20031;-80
2023/12/01 05:17:51;;;;;;;12.35;3.05;;;-0.40;99.90;;;;;;5097033;28;20566;-80
2023/12/01 05:20:18;;;;;;;11.00;5.20;;;-0.40;99.90;;;;;;5084928;28;20044;-80
2023/12/01 05:22:49;;;;;;;6.35;3.80;;;-0.50;99.90;;;;;;5102850;27;20047;-80
2023/12/01 05:25:16;;;;;;;4.40;2.08;;;-0.50;99.90;;;;;;5079582;28;20035;-80
2023/12/01 05:27:52;;;;;;;5.75;3.38;;;-0.50;99.90;;;;;;5096543;28;20032;-80
2023/12/01 05:30:20;;;;;;;7.35;3.58;;;-0.50;99.90;;;;;;5089340;28;20112;-80
2023/12/01 05:32:48;;;;;;;6.97;3.53;;;-0.50;99.90;;;;;;5080652;28;20164;-80
2023/12/01 05:35:15;;;;;;;9.40;2.47;;;-0.50;99.90;;;;;;5092468;28;20181;-80
2023/12/01 05:37:47;;;;;;;8.48;3.92;;;-0.50;99.90;;;;;;5084600;28;20397;-80
2023/12/01 05:40:22;;;;;;;7.78;2.67;;;-0.50;99.90;;;;;;5099031;28;20031;-80
2023/12/01 05:42:49;;;;;;;6.07;3.03;;;-0.50;99.90;;;;;;5100508;28;20044;-80
2023/12/01 05:45:16;;;;;;;10.57;4.68;;;-0.60;99.90;;;;;;5099564;28;20067;-80
2023/12/01 05:47:46;;;;;;;11.43;2.70;;;-0.60;99.90;;;;;;5083833;28;20088;-80
2023/12/01 05:50:17;;;;;;;9.13;3.00;;;-0.60;99.90;;;;;;5089468;28;20508;-80
2023/12/01 05:52:45;;;;;;;7.25;1.92;;;-0.60;99.90;;;;;;5096972;28;20035;-80
2023/12/01 05:55:34;;;;;;;13.70;2.70;;;-0.70;99.90;;;;;;5085590;28;20038;-80
2023/12/01 05:58:10;;;;;;;4.38;2.65;;;-0.70;99.90;;;;;;5099092;28;20092;-80
2023/12/01 06:00:36;;;;;;;5.75;4.25;;;-0.60;99.90;;;;;;5091964;28;20043;-80
2023/12/01 06:03:07;;;;;;;2.47;1.42;;;-0.70;99.90;;;;;;5080103;28;20036;-80
2023/12/01 06:05:33;;;;;;;8.55;3.85;;;-0.70;99.90;;;;;;5081342;28;20037;-80
2023/12/01 06:08:00;;;;;;;6.53;2.70;;;-0.70;99.90;;;;;;5096805;28;20040;-80
2023/12/01 06:10:29;;;;;;;5.82;2.33;;;-0.70;99.90;;;;;;5076130;28;20063;-80
2023/12/01 06:12:55;;;;;;;9.73;5.47;;;-0.70;99.90;;;;;;5103879;27;20035;-80
2023/12/01 06:15:22;;;;;;;15.57;4.03;;;-0.70;99.90;;;;;;5081912;28;20521;-80
2023/12/01 06:17:51;;;;;;;5.45;3.10;;;-0.70;99.90;;;;;;5082073;28;20171;-80
2023/12/01 06:20:22;;;;;;;7.57;2.90;;;-0.60;99.90;;;;;;5102881;28;20617;-80
2023/12/01 06:22:52;;;;;;;14.13;3.92;;;-0.70;99.90;;;;;;5076967;28;20389;-80
2023/12/01 06:25:20;;;;;;;8.07;3.75;;;-0.70;99.90;;;;;;5088318;28;20055;-80
2023/12/01 06:27:46;;;;;;;7.30;3.00;;;-0.70;99.90;;;;;;5091361;28;20041;-80
2023/12/01 06:30:13;;;;;;;2.72;1.77;;;-0.70;99.90;;;;;;5068950;28;20660;-80
2023/12/01 06:32:40;;;;;;;8.73;2.20;;;-0.70;99.90;;;;;;5073908;28;20043;-80
2023/12/01 06:35:11;;;;;;;6.65;3.03;;;-0.70;99.90;;;;;;5102604;28;20035;-80
2023/12/01 06:37:37;;;;;;;6.45;2.55;;;-0.70;99.90;;;;;;5093266;28;20039;-80
2023/12/01 06:40:03;;;;;;;7.18;2.42;;;-0.70;99.90;;;;;;5081448;28;20032;-80
2023/12/01 06:42:29;;;;;;;9.35;3.30;;;-0.80;99.90;;;;;;5079819;28;20067;-80
2023/12/01 06:44:57;;;;;;;8.55;3.47;;;-0.80;99.90;;;;;;5080798;28;20051;-80
2023/12/01 06:47:22;;;;;;;4.97;2.33;;;-0.80;99.90;;;;;;5079263;28;20486;-80
2023/12/01 06:49:48;;;;;;;6.03;2.90;;;-0.80;99.90;;;;;;5088694;28;20048;-80
2023/12/01 06:52:15;;;;;;;7.07;2.63;;;-0.90;99.90;;;;;;5103156;27;20552;-80
2023/12/01 06:54:40;;;;;;;4.70;2.25;;;-0.90;99.90;;;;;;5099836;28;20113;-80
2023/12/01 06:57:06;;;;;;;6.20;2.85;;;-0.80;99.90;;;;;;5100249;28;20497;-80
2023/12/01 06:59:32;;;;;;;5.78;2.88;;;-0.90;99.90;;;;;;5073094;28;20040;-81
2023/12/01 07:01:58;;;;;;;6.25;3.03;;;-0.90;99.90;;;;;;5092118;28;20086;-81
2023/12/01 07:04:24;;;;;;;4.53;1.58;;;-0.90;99.90;;;;;;5068523;28;20045;-81
2023/12/01 07:06:50;;;;;;;4.38;1.50;;;-0.90;99.90;;;;;;5070437;28;20431;-80
2023/12/01 07:09:17;;;;;;;5.35;2.70;;;-0.90;99.90;;;;;;5082311;28;20052;-81
2023/12/01 07:11:44;;;;;;;5.18;3.10;;;-0.90;99.90;;;;;;5071655;28;20074;-80
2023/12/01 07:14:12;;;;;;;8.55;3.35;;;-0.90;99.90;;;;;;5094798;28;20074;-80
2023/12/01 07:16:40;;;;;;;5.97;2.63;;;-1.00;99.90;;;;;;5090742;28;20452;-80
2023/12/01 07:19:05;;;;;;;5.80;2.92;;;-1.00;99.90;;;;;;5070111;28;20066;-80
2023/12/01 07:21:31;;;;;;;5.82;3.00;;;-1.00;99.90;;;;;;5088724;28;20500;-80
2023/12/01 07:23:58;;;;;;;3.47;1.27;;;-1.00;99.90;;;;;;5076190;28;20035;-80
2023/12/01 07:26:27;;;;;;;6.38;1.73;;;-1.00;99.90;;;;;;5096076;28;20485;-80
2023/12/01 07:28:53;;;;;;;5.63;2.90;;;-1.10;99.90;;;;;;5071110;28;20084;-80
2023/12/01 07:31:19;;;;;;;5.68;2.15;;;-1.10;99.90;;;;;;5082834;28;20712;-81
2023/12/01 07:33:44;;;;;;;6.60;2.38;;;-1.10;99.90;;;;;;5092435;28;20404;-80
2023/12/01 07:36:11;;;;;;;4.45;3.25;;;-1.10;99.90;;;;;;5076767;28;20375;-80
2023/12/01 07:38:36;;;;;;;9.43;3.67;;;-1.10;99.90;;;;;;5082554;28;20074;-80
2023/12/01 07:41:02;;;;;;;10.77;3.83;;;-1.10;99.90;;;;;;5082512;28;20067;-81
2023/12/01 07:43:28;;;;;;;7.60;3.63;;;-1.10;99.90;;;;;;5078961;28;20085;-81
2023/12/01 07:45:55;;;;;;;4.65;4.20;;;-1.20;99.90;;;;;;5070703;28;20035;-81
2023/12/01 07:48:21;;;;;;;4.18;2.55;;;-1.20;99.90;;;;;;5091208;28;20669;-80
2023/12/01 07:50:47;;;;;;;8.90;2.60;;;-1.10;99.90;;;;;;5068757;28;20036;-80
2023/12/01 07:53:13;;;;;;;6.13;2.63;;;-1.10;99.90;;;;;;5065303;28;20080;-80
2023/12/01 07:55:41;;;;;;;4.57;2.70;;;-1.00;99.90;;;;;;5072379;28;20081;-81
2023/12/01 07:58:06;;;;;;;8.95;3.17;;;-1.00;99.90;;;;;;5074662;28;20035;-81
2023/12/01 08:00:32;;;;;;;9.32;2.53;;;-1.10;99.90;;;;;;5098864;27;20397;-81
2023/12/01 08:02:58;;;;;;;2.50;1.75;;;-1.10;99.90;;;;;;5075524;28;20077;-81
2023/12/01 08:05:24;;;;;;;8.60;3.80;;;-1.10;99.90;;;;;;5075245;28;20456;-81
2023/12/01 08:07:51;;;;;;;11.88;3.72;;;-1.10;99.90;;;;;;5081265;28;20065;-80
2023/12/01 08:10:20;;;;;;;2.22;1.65;;;-1.10;99.90;;;;;;5091604;28;20040;-80
2023/12/01 08:12:47;;;;;;;4.93;2.92;;;-1.00;99.90;;;;;;5085664;28;20053;-80
2023/12/01 08:15:13;;;;;;;5.85;1.92;;;-1.00;99.90;;;;;;5091096;28;20040;-80
2023/12/01 08:17:40;;;;;;;11.10;3.45;;;-1.00;99.90;;;;;;5086937;28;20062;-80
2023/12/01 08:20:06;;;;;;;8.27;3.35;;;-1.00;99.90;;;;;;5071534;28;20092;-80
2023/12/01 08:22:33;;;;;;;5.05;2.20;;;-1.00;99.90;;;;;;5091196;28;20093;-81
2023/12/01 08:25:00;;;;;;;2.70;1.95;;;-0.90;99.90;;;;;;5078521;28;20043;-81
2023/12/01 08:27:25;;;;;;;3.40;2.13;;;-0.90;99.90;;;;;;5092271;28;20114;-81
2023/12/01 08:29:52;;;;;;;12.35;3.65;;;-1.00;99.90;;;;;;5089449;28;20128;-81
2023/12/01 08:32:17;;;;;;;10.93;2.63;;;-1.00;99.90;;;;;;5093296;28;20425;-81
2023/12/01 08:34:44;;;;;;;8.40;3.20;;;-0.90;99.90;;;;;;5088776;28;20038;-80
2023/12/01 08:37:10;;;;;;;10.65;3.65;;;-0.90;99.90;;;;;;5066712;28;20058;-80
2023/12/01 08:39:36;;;;;;;3.17;1.95;;;-0.90;99.90;;;;;;5081979;28;20031;-80
2023/12/01 08:42:02;;;;;;;3.85;2.10;;;-0.90;99.90;;;;;;5104671;28;20040;-80
2023/12/01 08:44:28;;;;;;;12.13;3.30;;;-0.90;99.90;;;;;;5074382;28;20043;-80
2023/12/01 08:46:54;;;;;;;2.90;1.85;;;-0.80;99.90;;;;;;5108621;28;20046;-80
2023/12/01 08:49:20;;;;;;;5.10;2.35;;;-0.80;99.90;;;;;;5071333;28;20033;-80
2023/12/01 08:51:45;;;;;;;3.05;1.63;;;-0.90;99.90;;;;;;5087706;28;20048;-80
2023/12/01 08:54:11;;;;;;;4.03;2.53;;;-0.80;99.90;;;;;;5087901;28;20024;-80
2023/12/01 08:56:36;;;;;;;3.95;1.60;;;-0.80;99.90;;;;;;5088419;28;20032;-80
2023/12/01 08:59:02;;;;;;;7.15;3.10;;;-0.80;99.90;;;;;;5088761;28;20118;-80
2023/12/01 09:01:28;;;;;;;7.75;2.28;;;-0.80;99.90;;;;;;5090102;28;20123;-79
2023/12/01 09:03:54;;;;;;;5.93;2.05;;;-0.80;99.90;;;;;;5092253;28;20127;-80
2023/12/01 09:06:21;;;;;;;4.82;1.60;;;-0.70;99.90;;;;;;5086905;28;20048;-80
2023/12/01 09:08:47;;;;;;;9.13;4.05;;;-0.70;99.90;;;;;;5091423;28;20043;-80
2023/12/01 09:11:13;;;;;;;5.72;2.35;;;-0.70;99.90;;;;;;5074586;28;20121;-80
2023/12/01 09:13:40;;;;;;;6.75;2.90;;;-0.70;99.90;;;;;;5084902;28;20487;-80
2023/12/01 09:16:06;;;;;;;4.20;2.42;;;-0.80;99.90;;;;;;5090605;28;20054;-79
2023/12/01 09:18:32;;;;;;;7.95;3.03;;;-0.80;99.90;;;;;;5073394;28;20028;-88
2023/12/01 09:20:57;;;;;;;6.57;2.72;;;-0.80;99.90;;;;;;5092622;28;20081;-81
2023/12/01 09:23:24;;;;;;;3.58;2.42;;;-0.80;99.90;;;;;;5080352;28;20444;-80
2023/12/01 09:25:50;;;;;;;5.68;2.72;;;-0.90;99.90;;;;;;5096521;28;20066;-81
2023/12/01 09:28:16;;;;;;;2.38;1.85;;;-0.90;99.90;;;;;;5095780;28;20040;-80
2023/12/01 09:30:42;;;;;;;7.00;2.65;;;-0.90;99.90;;;;;;5074518;28;20394;-80
2023/12/01 09:33:07;;;;;;;5.70;2.65;;;-0.80;99.90;;;;;;5082389;28;20075;-80
2023/12/01 09:35:33;;;;;;;3.53;2.40;;;-0.80;99.90;;;;;;5071700;28;20032;-81
2023/12/01 09:37:59;;;;;;;4.22;2.38;;;-0.70;99.90;;;;;;5083753;28;20539;-80
2023/12/01 09:40:25;;;;;;;7.05;2.88;;;-0.70;99.90;;;;;;5071002;28;20044;-80
2023/12/01 09:42:51;;;;;;;3.22;1.98;;;-0.70;99.90;;;;;;5106894;28;20040;-80
2023/12/01 09:45:22;;;;;;;3.65;1.88;;;-0.70;99.90;;;;;;5090347;28;20397;-80
2023/12/01 09:47:57;;;;;;;4.85;1.25;;;-0.60;99.90;;;;;;5071298;28;20404;-80
2023/12/01 09:50:23;;;;;;;5.93;2.30;;;-0.60;99.90;;;;;;5084741;28;20040;-80
2023/12/01 09:52:52;;;;;;;2.85;1.17;;;-0.60;99.90;;;;;;5084739;28;20437;-79
2023/12/01 09:55:17;;;;;;;3.65;1.90;;;-0.50;99.90;;;;;;5100655;27;20051;-80
2023/12/01 09:57:43;;;;;;;6.13;2.15;;;-0.50;99.90;;;;;;5075415;28;20042;-80
2023/12/01 10:00:11;;;;;;;5.28;3.22;;;-0.40;99.90;;;;;;5076894;28;20089;-82
2023/12/01 10:02:43;;;;;;;4.65;2.13;;;-0.40;99.90;;;;;;5072075;28;20035;-80
2023/12/01 10:05:13;;;;;;;5.35;1.85;;;-0.40;99.90;;;;;;5085642;28;20047;-80
2023/12/01 10:07:40;;;;;;;7.63;2.95;;;-0.40;99.90;;;;;;5073938;28;20077;-80
2023/12/01 10:10:20;;;;;;;5.80;1.70;;;-0.30;99.90;;;;;;5082220;28;20043;-80
2023/12/01 10:12:58;;;;;;;5.22;2.28;;;-0.30;99.90;;;;;;5083494;28;20444;-80
2023/12/01 10:15:25;;;;;;;6.47;3.28;;;-0.30;99.90;;;;;;5093183;28;20031;-80
2023/12/01 10:18:06;;;;;;;4.82;1.80;;;-0.30;99.90;;;;;;5077127;28;20043;-80
2023/12/01 10:20:32;;;;;;;4.20;2.22;;;-0.30;99.90;;;;;;5094421;28;20074;-80
2023/12/01 10:22:58;;;;;;;8.70;3.53;;;-0.30;99.90;;;;;;5096708;28;20031;-80
2023/12/01 10:25:23;;;;;;;3.80;2.60;;;-0.30;99.90;;;;;;5093944;28;20049;-80
2023/12/01 10:27:55;;;;;;;5.72;2.65;;;-0.30;99.90;;;;;;5071249;28;20032;-80
2023/12/01 10:30:22;;;;;;;3.50;1.83;;;-0.30;99.90;;;;;;5083257;28;20044;-80
2023/12/01 10:32:48;;;;;;;6.18;2.40;;;-0.30;99.90;;;;;;5088874;28;20048;-80
2023/12/01 10:35:14;;;;;;;5.25;2.53;;;-0.30;99.90;;;;;;5070577;28;20586;-80
2023/12/01 10:37:41;;;;;;;6.28;2.33;;;-0.30;99.90;;;;;;5092038;28;20070;-80
2023/12/01 10:40:09;;;;;;;9.52;2.20;;;-0.20;99.90;;;;;;5092694;28;20041;-80
2023/12/01 10:42:36;;;;;;;8.23;2.88;;;-0.20;99.90;;;;;;5105818;27;20048;-81
2023/12/01 10:45:03;;;;;;;10.77;4.68;;;-0.20;99.90;;;;;;5082577;28;20043;-80
2023/12/01 10:47:29;;;;;;;8.43;1.83;;;-0.20;99.90;;;;;;5069147;28;20044;-80
2023/12/01 10:49:56;;;;;;;4.85;2.50;;;-0.20;99.90;;;;;;5066369;28;20071;-80
2023/12/01 10:52:24;;;;;;;3.90;2.72;;;-0.20;99.90;;;;;;5081829;28;20036;-80
2023/12/01 10:54:50;;;;;;;2.13;1.27;;;-0.10;99.90;;;;;;5072950;28;20168;-80
2023/12/01 10:57:35;;;;;;;5.72;3.03;;;-0.10;99.90;;;;;;5070965;28;20189;-80
2023/12/01 11:00:06;;;;;;;3.93;2.53;;;-0.10;99.90;;;;;;5066283;28;20042;-80
2023/12/01 11:02:34;;;;;;;2.50;1.05;;;-0.10;99.90;;;;;;5085869;28;20126;-80
2023/12/01 11:05:01;;;;;;;2.42;2.13;;;-0.10;99.90;;;;;;5064199;28;20063;-80
2023/12/01 11:07:53;;;;;;;4.07;2.03;;;-0.10;99.90;;;;;;5069698;28;20051;-80
2023/12/01 11:10:31;;;;;;;6.03;2.92;;;0.00;99.90;;;;;;5068618;28;20040;-80
2023/12/01 11:13:19;;;;;;;7.03;2.53;;;-0.10;99.90;;;;;;5082825;28;20075;-81
2023/12/01 11:15:49;;;;;;;3.55;2.10;;;0.00;99.90;;;;;;5102212;28;20098;-80
2023/12/01 11:18:16;;;;;;;4.50;2.83;;;0.00;99.90;;;;;;5083428;28;20031;-79
2023/12/01 11:20:43;;;;;;;7.97;3.15;;;0.00;99.90;;;;;;5098093;28;20440;-80
2023/12/01 11:23:10;;;;;;;1.60;1.38;;;0.10;99.90;;;;;;5071304;28;20040;-79
2023/12/01 11:25:39;;;;;;;7.47;2.55;;;0.10;99.90;;;;;;5075858;28;20040;-80
2023/12/01 11:34:00;;;;;;;3.72;2.17;;;0.10;99.90;;;;;;5096385;28;20408;-79
2023/12/01 11:36:30;;;;;;;4.45;2.13;;;0.10;99.90;;;;;;5099864;28;20135;-79
2023/12/01 11:39:16;;;;;;;5.90;2.65;;;0.10;99.90;;;;;;5089057;28;20039;-79
2023/12/01 11:41:41;;;;;;;3.85;2.17;;;0.20;99.90;;;;;;5077074;28;20031;-80
2023/12/01 11:44:29;;;;;;;5.85;3.15;;;0.10;99.90;;;;;;5092512;28;20425;-79
2023/12/01 11:46:59;;;;;;;6.85;2.50;;;0.10;99.90;;;;;;5076164;28;20481;-81
2023/12/01 11:49:39;;;;;;;9.07;3.67;;;0.10;99.90;;;;;;5076457;28;20050;-80
2023/12/01 11:52:19;;;;;;;4.95;2.38;;;0.10;99.90;;;;;;5085939;28;20060;-80
2023/12/01 11:54:47;;;;;;;5.15;2.70;;;0.20;99.90;;;;;;5081159;28;20655;-80
2023/12/01 11:57:17;;;;;;;7.22;4.13;;;0.20;99.90;;;;;;5090873;28;20027;-79
2023/12/01 11:59:44;;;;;;;5.30;2.40;;;0.20;99.90;;;;;;5080452;28;20130;-80
2023/12/01 12:02:10;;;;;;;4.97;2.33;;;0.20;99.90;;;;;;5075491;28;20036;-80
2023/12/01 12:04:37;;;;;;;5.88;3.95;;;0.20;99.90;;;;;;5086968;28;20040;-80
2023/12/01 12:07:05;;;;;;;6.30;2.97;;;0.20;99.90;;;;;;5068153;28;20122;-80
2023/12/01 12:09:32;;;;;;;11.02;3.22;;;0.30;99.90;;;;;;5084682;28;20477;-80
2023/12/01 12:11:59;;;;;;;9.80;3.05;;;0.30;99.90;;;;;;5081116;28;20370;-79
2023/12/01 12:14:30;;;;;;;6.90;3.13;;;0.30;99.90;;;;;;5083648;28;20056;-79
2023/12/01 12:16:56;;;;;;;3.03;2.55;;;0.30;99.90;;;;;;5096955;28;20839;-80
2023/12/01 12:19:22;;;;;;;4.10;2.42;;;0.30;99.90;;;;;;5100904;28;20036;-80
2023/12/01 12:21:51;;;;;;;12.00;3.20;;;0.30;99.90;;;;;;5072249;28;20123;-80
2023/12/01 12:24:17;;;;;;;3.00;1.90;;;0.20;99.90;;;;;;5079292;28;20509;-80
2023/12/01 12:26:43;;;;;;;4.93;1.70;;;0.30;99.90;;;;;;5080164;28;20523;-79
2023/12/01 12:29:09;;;;;;;6.88;2.53;;;0.30;99.90;;;;;;5059568;28;20037;-80
2023/12/01 12:31:36;;;;;;;6.63;3.50;;;0.30;99.90;;;;;;5069982;28;20037;-80
2023/12/01 12:34:07;;;;;;;3.85;2.10;;;0.30;99.90;;;;;;5073851;28;20494;-80
2023/12/01 12:36:36;;;;;;;10.27;2.35;;;0.30;99.90;;;;;;5071794;28;20047;-80
2023/12/01 12:39:07;;;;;;;2.80;2.13;;;0.30;99.90;;;;;;5087938;28;20047;-81
2023/12/01 12:41:39;;;;;;;6.03;2.20;;;0.30;99.90;;;;;;5081170;28;20075;-80
2023/12/01 12:44:09;;;;;;;5.20;2.33;;;0.20;99.90;;;;;;5093526;28;21708;-79
2023/12/01 12:46:35;;;;;;;3.83;2.05;;;0.20;99.90;;;;;;5090116;28;20036;-80
2023/12/01 12:49:10;;;;;;;3.10;1.95;;;0.20;99.90;;;;;;5062604;28;20131;-80
2023/12/01 12:51:37;;;;;;;5.35;2.83;;;0.20;99.90;;;;;;5097940;28;20036;-80
2023/12/01 12:54:03;;;;;;;3.55;2.65;;;0.20;99.90;;;;;;5071373;28;20043;-80
2023/12/01 12:56:29;;;;;;;5.53;2.25;;;0.20;99.90;;;;;;5069300;28;20032;-80
2023/12/01 12:58:59;;;;;;;5.35;2.80;;;0.20;99.90;;;;;;5088587;28;20104;-80